Time;durP1;ratioP1;P1;durP2;ratioP2;P2;SDS_P1;SDS_P2;PMS_P1;PMS_P2;Temp;Humidity;BMP_temperature;BMP_pressure;BME280_temperature;BME280_humidity;BME280_pressure;Samples;Min_cycle;Max_cycle;Signal;HPM_P1;HPM_P2
2023/07/23 00:00:17;;;;;;;17.50;7.15;;;29.70;57.70;;;;;;6214937;23;20379;-73
2023/07/23 00:02:43;;;;;;;16.77;7.05;;;29.70;57.60;;;;;;6212851;23;20020;-72
2023/07/23 00:05:09;;;;;;;19.15;7.63;;;29.70;57.70;;;;;;6214985;23;20016;-72
2023/07/23 00:07:34;;;;;;;18.00;7.15;;;29.70;57.60;;;;;;6214783;23;19997;-73
2023/07/23 00:10:00;;;;;;;13.90;6.70;;;29.60;57.80;;;;;;6215038;23;20008;-73
2023/07/23 00:12:26;;;;;;;9.85;5.78;;;29.50;57.70;;;;;;6214950;23;20016;-72
2023/07/23 00:14:51;;;;;;;17.95;6.68;;;29.50;57.80;;;;;;6215130;23;20439;-72
2023/07/23 00:17:17;;;;;;;17.35;6.72;;;29.50;58.00;;;;;;6214785;23;20004;-72
2023/07/23 00:19:43;;;;;;;17.20;7.00;;;29.50;57.50;;;;;;6214683;23;20004;-72
2023/07/23 00:22:08;;;;;;;17.48;7.22;;;29.60;57.30;;;;;;6214954;23;20083;-72
2023/07/23 00:24:34;;;;;;;19.95;7.03;;;29.60;57.20;;;;;;6214520;23;20078;-72
2023/07/23 00:27:00;;;;;;;19.23;6.40;;;29.60;57.50;;;;;;6215371;23;20005;-73
2023/07/23 00:29:25;;;;;;;21.10;12.05;;;29.60;57.50;;;;;;6215127;23;20342;-74
2023/07/23 00:31:51;;;;;;;19.42;8.13;;;29.60;57.40;;;;;;6215423;23;20009;-73
2023/07/23 00:34:17;;;;;;;18.30;6.90;;;29.50;57.60;;;;;;6215275;23;20032;-74
2023/07/23 00:36:43;;;;;;;16.65;6.38;;;29.50;57.70;;;;;;6215423;23;20080;-72
2023/07/23 00:39:09;;;;;;;14.38;6.95;;;29.50;57.90;;;;;;6214402;23;20019;-73
2023/07/23 00:41:34;;;;;;;18.02;7.18;;;29.40;57.80;;;;;;6214645;23;20071;-72
2023/07/23 00:44:01;;;;;;;13.95;6.60;;;29.40;57.90;;;;;;6214079;23;20367;-72
2023/07/23 00:46:27;;;;;;;14.43;7.07;;;29.40;57.70;;;;;;6214295;23;20174;-73
2023/07/23 00:48:53;;;;;;;15.25;6.50;;;29.40;57.40;;;;;;6214483;23;20040;-71
2023/07/23 00:51:20;;;;;;;17.92;6.82;;;29.30;57.30;;;;;;6214729;23;20004;-72
2023/07/23 00:53:46;;;;;;;16.05;6.35;;;29.30;57.20;;;;;;6214626;23;20434;-72
2023/07/23 00:56:12;;;;;;;19.10;7.28;;;29.40;57.40;;;;;;6214312;23;20068;-73
2023/07/23 00:58:37;;;;;;;16.30;6.78;;;29.40;57.10;;;;;;6214610;23;20012;-72
2023/07/23 01:01:03;;;;;;;16.98;7.47;;;29.40;57.50;;;;;;6214525;23;20066;-73
2023/07/23 01:03:29;;;;;;;18.27;6.80;;;29.40;57.30;;;;;;6187200;23;20024;-71
2023/07/23 01:06:01;;;;;;;14.68;7.15;;;29.30;57.40;;;;;;6214462;23;20000;-72
2023/07/23 01:08:27;;;;;;;12.98;6.90;;;29.20;56.90;;;;;;6214609;23;20385;-73
2023/07/23 01:10:53;;;;;;;18.50;7.40;;;29.20;57.10;;;;;;6214629;23;20315;-73
2023/07/23 01:13:19;;;;;;;15.50;6.95;;;29.20;57.10;;;;;;6214550;23;20320;-73
2023/07/23 01:15:45;;;;;;;17.38;6.65;;;29.10;57.20;;;;;;6214535;23;20080;-73
2023/07/23 01:18:11;;;;;;;15.05;7.30;;;29.20;57.30;;;;;;6214538;23;20001;-73
2023/07/23 01:20:37;;;;;;;21.90;7.30;;;29.20;57.10;;;;;;6214214;23;20000;-72
2023/07/23 01:23:03;;;;;;;16.95;7.18;;;29.20;57.00;;;;;;6214454;23;20009;-72
2023/07/23 01:25:28;;;;;;;14.77;6.75;;;29.10;57.20;;;;;;6214904;23;20094;-73
2023/07/23 01:27:54;;;;;;;24.17;7.53;;;29.10;57.20;;;;;;6214348;23;19997;-73
2023/07/23 01:30:20;;;;;;;17.42;6.95;;;29.10;57.60;;;;;;6214379;23;20368;-73
2023/07/23 01:32:47;;;;;;;16.85;7.13;;;29.10;57.70;;;;;;6214410;23;20331;-72
2023/07/23 01:35:15;;;;;;;20.35;6.32;;;29.00;57.80;;;;;;6214551;23;20304;-72
2023/07/23 01:37:43;;;;;;;19.63;7.30;;;29.00;57.90;;;;;;6214324;23;20001;-73
2023/07/23 01:40:09;;;;;;;14.98;6.13;;;29.00;58.10;;;;;;6214056;23;20080;-73
2023/07/23 01:42:35;;;;;;;14.10;6.10;;;29.00;58.20;;;;;;6214438;23;20008;-72
2023/07/23 01:45:04;;;;;;;13.05;6.43;;;29.00;58.10;;;;;;6213857;23;20150;-73
2023/07/23 01:47:30;;;;;;;14.05;6.20;;;29.00;58.30;;;;;;6213986;23;20020;-72
2023/07/23 01:49:56;;;;;;;15.68;6.13;;;28.90;58.30;;;;;;6214302;23;20004;-73
2023/07/23 01:52:21;;;;;;;15.13;7.40;;;29.00;58.30;;;;;;6213953;23;20031;-73
2023/07/23 01:54:47;;;;;;;14.55;6.35;;;29.00;58.40;;;;;;6214055;23;20036;-72
2023/07/23 01:57:13;;;;;;;17.70;6.53;;;29.00;58.40;;;;;;6215738;23;20001;-73
2023/07/23 01:59:39;;;;;;;14.32;7.00;;;29.00;58.70;;;;;;6216170;23;20000;-74
2023/07/23 02:02:09;;;;;;;14.45;7.07;;;28.90;59.00;;;;;;6215625;23;20438;-72
2023/07/23 02:04:35;;;;;;;14.60;6.45;;;28.90;58.90;;;;;;6215774;23;20391;-73
2023/07/23 02:07:01;;;;;;;16.20;6.97;;;28.90;59.00;;;;;;6189370;23;20132;-72
2023/07/23 02:09:27;;;;;;;18.77;6.68;;;28.80;59.00;;;;;;6215990;23;20062;-73
2023/07/23 02:11:53;;;;;;;17.50;7.10;;;28.70;59.40;;;;;;6216140;23;20001;-72
2023/07/23 02:14:18;;;;;;;16.05;7.25;;;28.70;59.70;;;;;;6215822;23;20008;-72
2023/07/23 02:16:44;;;;;;;13.60;6.53;;;28.60;60.00;;;;;;6215945;23;20004;-73
2023/07/23 02:19:10;;;;;;;16.38;6.57;;;28.60;60.10;;;;;;6216200;23;20005;-73
2023/07/23 02:21:35;;;;;;;20.23;7.63;;;28.50;60.10;;;;;;6216304;23;20000;-72
2023/07/23 02:24:01;;;;;;;15.50;6.20;;;28.50;60.60;;;;;;6215848;23;20019;-73
2023/07/23 02:26:27;;;;;;;14.90;7.05;;;28.50;60.60;;;;;;6215695;23;20047;-73
2023/07/23 02:28:52;;;;;;;13.82;6.90;;;28.50;60.60;;;;;;6215829;23;20004;-73
2023/07/23 02:31:18;;;;;;;24.67;7.18;;;28.50;60.70;;;;;;6215870;23;20378;-73
2023/07/23 02:33:44;;;;;;;15.82;6.55;;;28.50;60.70;;;;;;6216136;23;20013;-72
2023/07/23 02:36:09;;;;;;;14.60;6.65;;;28.60;60.70;;;;;;6216086;23;20001;-73
2023/07/23 02:38:36;;;;;;;17.52;7.60;;;28.60;60.80;;;;;;6215754;23;19996;-73
2023/07/23 02:41:01;;;;;;;16.90;7.22;;;28.60;60.80;;;;;;6215861;23;20063;-74
2023/07/23 02:43:27;;;;;;;20.67;7.60;;;28.60;60.90;;;;;;6215703;23;20013;-74
2023/07/23 02:45:53;;;;;;;17.42;7.40;;;28.60;61.00;;;;;;6215702;23;20473;-72
2023/07/23 02:48:18;;;;;;;17.35;7.85;;;28.60;60.90;;;;;;6215692;23;20000;-73
2023/07/23 02:50:44;;;;;;;14.85;6.53;;;28.60;61.10;;;;;;6215572;23;20288;-73
2023/07/23 02:53:10;;;;;;;14.50;7.55;;;28.60;60.90;;;;;;6215851;23;20005;-72
2023/07/23 02:55:36;;;;;;;20.60;7.20;;;28.60;61.20;;;;;;6215786;23;20029;-73
2023/07/23 02:58:03;;;;;;;18.17;7.22;;;28.60;61.30;;;;;;6215579;23;20005;-73
2023/07/23 03:00:30;;;;;;;24.52;7.95;;;28.60;61.40;;;;;;6188861;23;20029;-72
2023/07/23 03:02:56;;;;;;;12.75;7.13;;;28.70;61.20;;;;;;6215273;23;20138;-73
2023/07/23 03:05:24;;;;;;;18.13;7.38;;;28.60;61.10;;;;;;6215602;23;20005;-73
2023/07/23 03:07:53;;;;;;;15.40;7.43;;;28.60;61.20;;;;;;6215146;23;20008;-74
2023/07/23 03:10:18;;;;;;;17.65;7.78;;;28.60;61.00;;;;;;6215415;23;20000;-73
2023/07/23 03:12:44;;;;;;;16.48;6.82;;;28.60;61.30;;;;;;6215702;23;20004;-73
2023/07/23 03:15:10;;;;;;;12.55;7.10;;;28.60;61.40;;;;;;6215174;23;20087;-74
2023/07/23 03:17:36;;;;;;;13.43;6.88;;;28.60;61.30;;;;;;6215426;23;20000;-72
2023/07/23 03:20:03;;;;;;;18.67;7.55;;;28.60;61.40;;;;;;6215687;23;20391;-73
2023/07/23 03:22:29;;;;;;;13.32;7.55;;;28.70;61.60;;;;;;6215528;23;20004;-71
2023/07/23 03:24:55;;;;;;;18.67;7.10;;;28.60;61.40;;;;;;6215319;23;20009;-74
2023/07/23 03:27:21;;;;;;;17.17;7.88;;;28.70;61.50;;;;;;6215535;23;20429;-73
2023/07/23 03:29:48;;;;;;;19.50;7.13;;;28.70;61.70;;;;;;6215265;23;20009;-72
2023/07/23 03:32:13;;;;;;;16.30;7.20;;;28.70;61.80;;;;;;6215470;23;20004;-73
2023/07/23 03:34:39;;;;;;;17.88;6.95;;;28.60;61.70;;;;;;6215570;23;20004;-72
2023/07/23 03:37:06;;;;;;;13.63;6.50;;;28.60;61.70;;;;;;6215203;23;19996;-73
2023/07/23 03:39:31;;;;;;;11.82;6.65;;;28.60;61.90;;;;;;6215302;23;20253;-73
2023/07/23 03:41:57;;;;;;;16.25;7.10;;;28.60;61.80;;;;;;6215294;23;20004;-72
2023/07/23 03:44:23;;;;;;;15.52;7.30;;;28.60;61.90;;;;;;6215247;23;20009;-72
2023/07/23 03:47:14;;;;;;;13.85;6.55;;;28.60;61.80;;;;;;6215073;23;20056;-73
2023/07/23 03:49:40;;;;;;;19.05;7.68;;;28.60;63.10;;;;;;6215385;23;20054;-73
2023/07/23 03:52:07;;;;;;;18.38;7.20;;;28.60;62.00;;;;;;6188578;23;20346;-72
2023/07/23 03:54:33;;;;;;;16.13;7.68;;;28.50;62.30;;;;;;6214973;23;20497;-73
2023/07/23 03:56:59;;;;;;;16.15;7.30;;;28.50;62.20;;;;;;6215451;23;20001;-74
2023/07/23 03:59:30;;;;;;;15.80;7.47;;;28.50;62.60;;;;;;6215174;23;20007;-73
2023/07/23 04:01:56;;;;;;;16.95;7.63;;;28.50;62.40;;;;;;6215034;23;20021;-73
2023/07/23 04:04:23;;;;;;;18.98;7.50;;;28.40;62.50;;;;;;6215004;23;20497;-72
2023/07/23 04:06:48;;;;;;;17.55;8.07;;;28.40;62.50;;;;;;6214729;23;19997;-73
2023/07/23 04:09:14;;;;;;;15.10;7.13;;;28.40;62.50;;;;;;6188265;23;20008;-73
2023/07/23 04:11:40;;;;;;;16.33;6.63;;;28.40;62.60;;;;;;6214975;23;20008;-72
2023/07/23 04:14:07;;;;;;;17.50;7.47;;;28.30;63.30;;;;;;6214976;23;20079;-73
2023/07/23 04:16:32;;;;;;;14.48;6.68;;;28.30;62.80;;;;;;6214681;23;20007;-73
2023/07/23 04:18:58;;;;;;;16.42;7.25;;;28.30;62.90;;;;;;6214820;23;20079;-73
2023/07/23 04:21:25;;;;;;;14.10;7.93;;;28.30;62.90;;;;;;6214630;23;20008;-73
2023/07/23 04:23:52;;;;;;;13.40;6.63;;;28.30;63.10;;;;;;6214699;23;20012;-73
2023/07/23 04:26:19;;;;;;;18.42;7.47;;;28.40;63.00;;;;;;6214836;23;20004;-74
2023/07/23 04:28:45;;;;;;;20.40;7.13;;;28.40;62.90;;;;;;6214835;23;20407;-72
2023/07/23 04:31:11;;;;;;;19.60;7.93;;;28.40;63.30;;;;;;6214613;23;20009;-73
2023/07/23 04:33:37;;;;;;;19.63;6.90;;;28.40;63.50;;;;;;6214768;23;20335;-72
2023/07/23 04:36:05;;;;;;;18.10;7.65;;;28.30;63.40;;;;;;6214474;23;20031;-73
2023/07/23 04:38:31;;;;;;;17.60;6.70;;;28.30;63.40;;;;;;6214163;23;20001;-74
2023/07/23 04:40:56;;;;;;;16.48;6.80;;;28.40;63.40;;;;;;6214316;23;20084;-72
2023/07/23 04:43:22;;;;;;;20.88;7.78;;;28.40;63.30;;;;;;6214401;23;20012;-73
2023/07/23 04:45:48;;;;;;;21.05;7.82;;;28.40;63.30;;;;;;6214783;23;20004;-73
2023/07/23 04:48:16;;;;;;;15.02;6.63;;;28.40;63.50;;;;;;6214663;23;20346;-72
2023/07/23 04:50:42;;;;;;;15.77;7.20;;;28.40;63.30;;;;;;6214634;23;20422;-73
2023/07/23 04:53:08;;;;;;;12.68;6.70;;;28.30;63.10;;;;;;6214324;23;20092;-72
2023/07/23 04:55:34;;;;;;;19.35;7.22;;;28.30;63.40;;;;;;6214576;23;20458;-73
2023/07/23 04:58:00;;;;;;;16.98;7.55;;;28.40;63.40;;;;;;6214622;23;20008;-73
2023/07/23 05:00:27;;;;;;;17.02;7.35;;;28.40;63.50;;;;;;6214419;23;20012;-72
2023/07/23 05:02:53;;;;;;;16.38;7.13;;;28.40;63.70;;;;;;6214657;23;20017;-72
2023/07/23 05:05:18;;;;;;;11.82;6.57;;;28.30;63.70;;;;;;6188867;23;20007;-72
2023/07/23 05:07:44;;;;;;;16.67;6.95;;;28.20;64.00;;;;;;6214723;23;20003;-72
2023/07/23 05:10:10;;;;;;;13.68;7.20;;;28.20;63.80;;;;;;6214373;23;20035;-72
2023/07/23 05:12:36;;;;;;;19.45;7.10;;;28.20;64.00;;;;;;6214284;23;20359;-72
2023/07/23 05:15:14;;;;;;;20.58;7.43;;;28.20;64.00;;;;;;6214181;23;20063;-73
2023/07/23 05:17:41;;;;;;;18.27;7.03;;;28.30;64.30;;;;;;6214177;23;20078;-74
2023/07/23 05:20:08;;;;;;;16.27;7.03;;;28.40;63.80;;;;;;6214150;23;19997;-72
2023/07/23 05:22:39;;;;;;;18.23;7.53;;;28.60;63.20;;;;;;6214628;23;20338;-73
2023/07/23 05:25:05;;;;;;;19.35;7.35;;;28.80;63.20;;;;;;6214316;23;20021;-73
2023/07/23 05:27:31;;;;;;;18.42;7.45;;;28.90;62.40;;;;;;6214407;23;20031;-73
2023/07/23 05:29:57;;;;;;;19.08;7.38;;;29.00;62.10;;;;;;6214338;23;20490;-73
2023/07/23 05:32:22;;;;;;;18.45;6.90;;;29.30;61.80;;;;;;6217354;23;20079;-74
2023/07/23 05:34:48;;;;;;;19.92;7.40;;;29.50;61.00;;;;;;6217728;23;19997;-73
2023/07/23 05:37:14;;;;;;;16.27;7.68;;;29.70;60.50;;;;;;6217639;23;20024;-72
2023/07/23 05:39:39;;;;;;;15.40;7.10;;;30.00;59.80;;;;;;6217832;23;19993;-73
2023/07/23 05:42:05;;;;;;;20.02;7.65;;;30.20;59.30;;;;;;6218102;23;20015;-73
2023/07/23 05:44:32;;;;;;;14.52;7.35;;;30.40;58.80;;;;;;6217634;23;20043;-73
2023/07/23 05:46:57;;;;;;;16.75;7.18;;;30.50;58.70;;;;;;6217713;23;20272;-73
2023/07/23 05:49:24;;;;;;;18.15;7.70;;;30.60;58.90;;;;;;6217378;23;20055;-73
2023/07/23 05:51:51;;;;;;;15.98;6.82;;;30.90;58.40;;;;;;6217469;23;20335;-73
2023/07/23 05:54:17;;;;;;;21.92;7.20;;;31.10;57.80;;;;;;6217494;23;20001;-74
2023/07/23 05:56:43;;;;;;;15.43;6.93;;;31.30;57.50;;;;;;6217475;23;20001;-72
2023/07/23 05:59:09;;;;;;;17.67;6.65;;;31.40;57.10;;;;;;6217474;23;20012;-72
2023/07/23 06:01:35;;;;;;;20.15;6.63;;;31.60;56.50;;;;;;6217071;23;20012;-73
2023/07/23 06:04:00;;;;;;;17.88;7.03;;;31.80;56.40;;;;;;6217686;23;20067;-73
2023/07/23 06:06:26;;;;;;;17.60;6.97;;;31.80;56.20;;;;;;6217369;23;19997;-73
2023/07/23 06:08:52;;;;;;;17.27;6.57;;;31.90;55.90;;;;;;6217563;23;20004;-73
2023/07/23 06:11:17;;;;;;;14.60;6.43;;;32.10;55.50;;;;;;6217491;23;20374;-73
2023/07/23 06:13:43;;;;;;;17.27;6.13;;;32.20;55.30;;;;;;6217359;23;20031;-70
2023/07/23 06:16:09;;;;;;;14.05;5.95;;;32.30;55.30;;;;;;6217385;23;20430;-73
2023/07/23 06:18:35;;;;;;;15.00;5.80;;;32.50;54.70;;;;;;6217561;23;20028;-73
2023/07/23 06:21:04;;;;;;;15.75;6.97;;;32.50;54.50;;;;;;6217503;23;20036;-73
2023/07/23 06:23:30;;;;;;;21.63;6.55;;;32.50;54.40;;;;;;6217557;23;20013;-74
2023/07/23 06:25:57;;;;;;;16.80;6.55;;;32.90;54.10;;;;;;6217566;23;20423;-74
2023/07/23 06:28:22;;;;;;;15.27;6.47;;;33.10;53.60;;;;;;6217144;23;20475;-72
2023/07/23 06:30:55;;;;;;;23.70;7.10;;;33.30;53.20;;;;;;6190970;23;20011;-73
2023/07/23 06:33:21;;;;;;;13.95;6.22;;;33.60;52.90;;;;;;6217504;23;20465;-74
2023/07/23 06:35:48;;;;;;;13.15;6.10;;;33.70;52.80;;;;;;6217541;23;20016;-74
2023/07/23 06:38:14;;;;;;;16.30;5.85;;;33.60;52.70;;;;;;6217256;23;20446;-73
2023/07/23 06:40:52;;;;;;;14.30;6.20;;;33.70;52.70;;;;;;6217182;23;19997;-73
2023/07/23 06:43:19;;;;;;;21.35;6.55;;;34.00;52.40;;;;;;6215408;23;20039;-74
2023/07/23 06:45:49;;;;;;;14.90;6.00;;;34.20;52.00;;;;;;6215288;23;19997;-72
2023/07/23 06:48:15;;;;;;;14.75;6.35;;;34.40;52.20;;;;;;6215428;23;20000;-73
2023/07/23 06:50:44;;;;;;;17.80;6.32;;;34.60;51.80;;;;;;6215654;23;20015;-74
2023/07/23 06:53:10;;;;;;;15.10;6.22;;;34.70;51.60;;;;;;6215392;23;20300;-72
2023/07/23 06:55:57;;;;;;;19.95;6.50;;;34.50;51.50;;;;;;6215776;23;20007;-73
2023/07/23 06:58:23;;;;;;;21.67;7.13;;;34.70;51.40;;;;;;6215383;23;19996;-74
2023/07/23 07:00:48;;;;;;;20.08;6.97;;;34.70;51.30;;;;;;6215294;23;20063;-73
2023/07/23 07:03:14;;;;;;;14.55;6.15;;;34.80;51.40;;;;;;6215239;23;20017;-73
2023/07/23 07:05:40;;;;;;;13.77;6.38;;;34.90;51.30;;;;;;6215331;23;20051;-72
2023/07/23 07:08:05;;;;;;;17.20;6.78;;;35.00;51.10;;;;;;6215417;23;20051;-74
2023/07/23 07:10:31;;;;;;;16.48;6.55;;;35.10;50.90;;;;;;6215222;23;20004;-74
2023/07/23 07:12:57;;;;;;;15.48;5.93;;;35.20;51.00;;;;;;6215038;23;20007;-74
2023/07/23 07:15:22;;;;;;;20.15;6.80;;;35.20;51.00;;;;;;6215281;23;20008;-74
2023/07/23 07:17:48;;;;;;;17.05;6.50;;;35.20;50.90;;;;;;6215239;23;20005;-75
2023/07/23 07:20:14;;;;;;;17.98;6.00;;;35.20;50.80;;;;;;6215266;23;19996;-74
2023/07/23 07:22:39;;;;;;;14.50;5.50;;;35.30;50.70;;;;;;6214756;23;20020;-73
2023/07/23 07:25:06;;;;;;;14.15;5.93;;;35.50;50.50;;;;;;6214915;23;20012;-74
2023/07/23 07:27:31;;;;;;;17.65;6.50;;;35.60;50.20;;;;;;6215355;23;20435;-74
2023/07/23 07:29:57;;;;;;;16.30;5.80;;;35.60;50.90;;;;;;6215404;23;20076;-74
2023/07/23 07:32:23;;;;;;;25.50;6.35;;;35.40;50.20;;;;;;6215448;23;20453;-74
2023/07/23 07:34:48;;;;;;;17.98;6.22;;;35.50;50.40;;;;;;6215310;23;19996;-75
2023/07/23 07:37:14;;;;;;;18.70;5.97;;;35.60;49.90;;;;;;6215176;23;20062;-73
2023/07/23 07:39:40;;;;;;;15.02;5.68;;;35.50;49.40;;;;;;6215021;23;20005;-75
2023/07/23 07:42:09;;;;;;;23.13;5.70;;;35.50;49.00;;;;;;6215114;23;20407;-73
2023/07/23 07:44:35;;;;;;;17.05;5.93;;;35.50;48.90;;;;;;6214602;23;20155;-75
2023/07/23 07:47:00;;;;;;;21.33;6.28;;;35.50;49.20;;;;;;6214795;23;20427;-74
2023/07/23 07:49:26;;;;;;;15.55;5.72;;;35.30;49.70;;;;;;6214918;23;20032;-74
2023/07/23 07:51:52;;;;;;;17.65;6.57;;;35.10;50.00;;;;;;6215575;23;20000;-74
2023/07/23 07:54:17;;;;;;;15.23;5.50;;;35.00;49.90;;;;;;6214623;23;20011;-74
2023/07/23 07:56:43;;;;;;;16.92;5.85;;;35.00;49.80;;;;;;6214921;23;20008;-74
2023/07/23 07:59:12;;;;;;;13.82;6.00;;;35.00;49.70;;;;;;6214766;23;20011;-74
2023/07/23 08:01:38;;;;;;;24.60;6.07;;;34.90;49.60;;;;;;6214676;23;20008;-73
2023/07/23 08:04:07;;;;;;;20.42;6.30;;;35.00;49.70;;;;;;6214693;23;20035;-74
2023/07/23 08:06:40;;;;;;;20.58;5.78;;;34.90;49.50;;;;;;6214611;23;20315;-74
2023/07/23 08:09:09;;;;;;;16.52;5.90;;;34.90;49.60;;;;;;6214599;23;20011;-73
2023/07/23 08:11:36;;;;;;;23.02;6.25;;;34.90;50.00;;;;;;6214653;23;20071;-74
2023/07/23 08:14:06;;;;;;;18.23;6.43;;;34.90;50.00;;;;;;6214802;23;20067;-73
2023/07/23 08:16:32;;;;;;;19.55;5.93;;;34.90;50.00;;;;;;6214473;23;20001;-74
2023/07/23 08:18:58;;;;;;;15.25;5.93;;;34.70;50.00;;;;;;6214554;23;20001;-75
2023/07/23 08:21:24;;;;;;;24.30;6.45;;;34.60;50.20;;;;;;6214928;23;20012;-73
2023/07/23 08:23:50;;;;;;;16.92;6.70;;;34.40;50.10;;;;;;6214340;23;20442;-74
2023/07/23 08:26:20;;;;;;;15.50;5.72;;;34.40;50.50;;;;;;6214530;23;20001;-73
2023/07/23 08:28:51;;;;;;;20.20;6.75;;;34.40;50.80;;;;;;6214783;23;20020;-73
2023/07/23 08:31:18;;;;;;;16.67;5.90;;;34.30;50.80;;;;;;6214275;23;19996;-74
2023/07/23 08:33:46;;;;;;;22.75;6.40;;;34.30;50.50;;;;;;6214240;23;20004;-75
2023/07/23 08:36:12;;;;;;;19.55;7.18;;;34.10;50.90;;;;;;6214385;23;20009;-76
2023/07/23 08:38:38;;;;;;;19.00;6.32;;;34.00;50.70;;;;;;6213825;23;20116;-72
2023/07/23 08:41:35;;;;;;;18.67;6.60;;;34.10;50.60;;;;;;6213771;23;20015;-75
2023/07/23 08:44:17;;;;;;;17.63;6.05;;;34.00;50.00;;;;;;6214113;23;20012;-74
2023/07/23 08:46:45;;;;;;;19.13;6.90;;;33.90;50.20;;;;;;6214004;23;20000;-74
2023/07/23 08:49:11;;;;;;;23.58;6.50;;;33.80;51.40;;;;;;6213577;23;20020;-73
2023/07/23 08:51:43;;;;;;;21.50;6.68;;;33.70;51.40;;;;;;6187442;23;20386;-74
2023/07/23 08:54:09;;;;;;;18.13;6.68;;;33.80;50.50;;;;;;6214039;23;20045;-76
2023/07/23 08:56:37;;;;;;;15.80;5.90;;;33.80;51.40;;;;;;6214654;23;20028;-76
2023/07/23 08:59:04;;;;;;;20.92;6.63;;;33.80;51.40;;;;;;6214137;23;20004;-74
2023/07/23 09:01:34;;;;;;;20.27;6.40;;;33.80;51.50;;;;;;6214274;23;20071;-73
2023/07/23 09:04:02;;;;;;;15.88;5.93;;;33.80;51.20;;;;;;6214344;23;20028;-75
2023/07/23 09:06:30;;;;;;;18.60;6.55;;;33.70;51.40;;;;;;6213770;23;20084;-74
2023/07/23 09:09:16;;;;;;;18.70;6.47;;;33.80;51.40;;;;;;6214451;23;20005;-74
2023/07/23 09:11:42;;;;;;;15.45;6.35;;;33.70;51.10;;;;;;6187346;23;20347;-75
2023/07/23 09:14:09;;;;;;;21.08;5.60;;;33.70;51.20;;;;;;6214263;23;20024;-74
2023/07/23 09:16:40;;;;;;;19.48;6.50;;;33.70;51.30;;;;;;6214060;23;20335;-74
2023/07/23 09:19:08;;;;;;;20.85;6.65;;;33.60;50.60;;;;;;6214020;23;20448;-74
2023/07/23 09:21:34;;;;;;;23.08;7.10;;;33.60;51.70;;;;;;6214142;23;20004;-75
2023/07/23 09:24:06;;;;;;;17.75;6.50;;;33.60;51.60;;;;;;6214416;23;20017;-75
2023/07/23 09:26:32;;;;;;;14.43;6.22;;;33.70;51.20;;;;;;6214075;23;20015;-74
2023/07/23 09:28:59;;;;;;;23.27;6.82;;;33.70;51.60;;;;;;6187606;23;20009;-74
2023/07/23 09:31:27;;;;;;;19.95;6.93;;;33.70;51.60;;;;;;6214141;23;20020;-74
2023/07/23 09:33:55;;;;;;;18.42;6.45;;;33.70;51.60;;;;;;6213862;23;20434;-74
2023/07/23 09:36:22;;;;;;;13.15;5.85;;;33.80;51.80;;;;;;6214378;23;20058;-75
2023/07/23 09:39:00;;;;;;;15.50;6.10;;;33.80;51.90;;;;;;6214344;23;20008;-74
2023/07/23 09:41:29;;;;;;;16.85;6.40;;;33.80;51.00;;;;;;6214086;23;20025;-76
2023/07/23 09:43:58;;;;;;;21.40;6.88;;;33.80;52.20;;;;;;6214071;23;20374;-75
2023/07/23 09:46:25;;;;;;;21.98;6.80;;;33.70;52.30;;;;;;6214006;23;20027;-74
2023/07/23 09:48:51;;;;;;;15.98;6.13;;;33.70;52.20;;;;;;6213978;23;20076;-74
2023/07/23 09:51:17;;;;;;;16.52;5.93;;;33.80;52.20;;;;;;6187343;23;20088;-74
2023/07/23 09:53:45;;;;;;;17.35;6.90;;;33.70;52.50;;;;;;6213947;23;20043;-75
2023/07/23 09:56:13;;;;;;;17.67;6.55;;;33.70;52.60;;;;;;6214501;23;20124;-75
2023/07/23 09:58:41;;;;;;;17.95;6.88;;;33.70;52.70;;;;;;6214167;23;20458;-75
2023/07/23 10:01:07;;;;;;;19.25;6.68;;;33.70;52.60;;;;;;6213680;23;19997;-75
2023/07/23 10:03:34;;;;;;;15.70;6.28;;;33.80;52.60;;;;;;6214023;23;20462;-74
2023/07/23 10:06:00;;;;;;;20.58;6.80;;;33.80;52.90;;;;;;6187212;23;20400;-75
2023/07/23 10:08:28;;;;;;;18.75;6.55;;;33.90;52.60;;;;;;6213997;23;20032;-75
2023/07/23 10:10:53;;;;;;;18.88;5.97;;;33.90;52.60;;;;;;6214105;23;20012;-74
2023/07/23 10:13:19;;;;;;;21.17;6.80;;;34.00;52.70;;;;;;6214047;23;20008;-75
2023/07/23 10:15:47;;;;;;;21.02;6.85;;;34.00;52.60;;;;;;6187239;23;20012;-76
2023/07/23 10:18:13;;;;;;;25.65;7.85;;;34.00;52.60;;;;;;6215460;23;20458;-74
2023/07/23 10:20:40;;;;;;;20.00;6.90;;;34.00;53.10;;;;;;6216041;23;19997;-75
2023/07/23 10:23:06;;;;;;;18.65;6.88;;;34.00;52.40;;;;;;6215837;23;20039;-74
2023/07/23 10:25:34;;;;;;;14.82;6.13;;;34.10;52.70;;;;;;6215897;23;20000;-73
2023/07/23 10:28:08;;;;;;;19.73;6.72;;;34.20;52.60;;;;;;6215760;23;20064;-74
2023/07/23 10:30:36;;;;;;;18.48;6.32;;;34.20;52.70;;;;;;6215827;23;20005;-75
2023/07/23 10:33:11;;;;;;;13.95;5.97;;;34.30;52.80;;;;;;6215630;23;20427;-75
2023/07/23 10:35:52;;;;;;;18.73;6.88;;;34.40;52.60;;;;;;6215852;23;20004;-74
2023/07/23 10:38:25;;;;;;;19.30;6.35;;;34.40;51.40;;;;;;6215787;23;20032;-74
2023/07/23 10:40:51;;;;;;;26.10;7.18;;;34.50;52.50;;;;;;6215560;23;20423;-74
2023/07/23 10:43:17;;;;;;;17.23;6.00;;;34.50;52.50;;;;;;6215627;23;20086;-75
2023/07/23 10:46:04;;;;;;;17.63;6.90;;;34.60;53.00;;;;;;6215813;23;20091;-74
2023/07/23 10:48:49;;;;;;;16.35;6.20;;;34.60;52.00;;;;;;6215717;23;20450;-74
2023/07/23 10:51:20;;;;;;;18.35;6.38;;;34.80;53.10;;;;;;6215529;23;20012;-74
2023/07/23 10:54:01;;;;;;;15.35;6.43;;;34.80;53.10;;;;;;6216014;23;20073;-74
2023/07/23 10:56:28;;;;;;;20.50;6.72;;;34.90;51.80;;;;;;6215780;23;20000;-75
2023/07/23 10:59:02;;;;;;;21.05;7.03;;;35.00;52.90;;;;;;6215643;23;20016;-74
2023/07/23 11:01:28;;;;;;;17.70;6.90;;;35.00;52.70;;;;;;6215572;23;20025;-75
2023/07/23 11:03:56;;;;;;;17.20;6.43;;;35.10;53.00;;;;;;6215871;23;20068;-73
2023/07/23 11:06:32;;;;;;;20.45;7.00;;;35.20;52.70;;;;;;6215921;23;20087;-74
2023/07/23 11:09:03;;;;;;;15.82;5.75;;;35.30;52.50;;;;;;6216043;23;20009;-74
2023/07/23 11:11:40;;;;;;;17.83;6.63;;;35.30;52.40;;;;;;6216118;23;20001;-74
2023/07/23 11:14:23;;;;;;;16.17;6.70;;;35.40;51.20;;;;;;6215657;23;20004;-75
2023/07/23 11:16:51;;;;;;;14.55;6.88;;;35.40;51.00;;;;;;6215801;23;20426;-74
2023/07/23 11:19:19;;;;;;;16.63;6.22;;;35.30;52.40;;;;;;6215685;23;20001;-74
2023/07/23 11:21:50;;;;;;;17.90;6.28;;;35.40;52.60;;;;;;6215773;23;20055;-74
2023/07/23 11:24:20;;;;;;;18.00;7.40;;;35.50;52.60;;;;;;6215753;23;20023;-73
2023/07/23 11:26:46;;;;;;;23.45;10.10;;;35.50;52.40;;;;;;6215825;23;20029;-74
2023/07/23 11:29:13;;;;;;;28.27;11.88;;;35.50;52.40;;;;;;6189085;23;20112;-74
2023/07/23 11:31:40;;;;;;;20.88;7.10;;;35.50;52.30;;;;;;6215221;23;20489;-74
2023/07/23 11:34:06;;;;;;;16.45;6.07;;;35.60;52.30;;;;;;6215763;23;20028;-75
2023/07/23 11:36:36;;;;;;;16.77;7.22;;;35.60;52.00;;;;;;6215793;23;20384;-73
2023/07/23 11:39:04;;;;;;;19.33;6.78;;;35.60;52.10;;;;;;6215313;23;20438;-76
2023/07/23 11:41:40;;;;;;;19.27;6.80;;;35.70;52.10;;;;;;6215491;23;19997;-73
2023/07/23 11:44:07;;;;;;;18.20;6.55;;;35.70;52.10;;;;;;6215360;23;20012;-74
2023/07/23 11:46:34;;;;;;;17.75;6.03;;;35.70;52.20;;;;;;6215304;23;20375;-74
2023/07/23 11:49:04;;;;;;;18.70;6.43;;;35.70;52.10;;;;;;6215765;23;20000;-72
2023/07/23 11:51:33;;;;;;;19.25;6.75;;;35.70;52.00;;;;;;6215223;23;19996;-74
2023/07/23 11:54:09;;;;;;;23.38;6.88;;;35.70;51.90;;;;;;6215890;23;20439;-75
2023/07/23 11:56:37;;;;;;;14.50;6.22;;;35.70;52.00;;;;;;6215735;23;20390;-74
2023/07/23 11:59:09;;;;;;;16.15;5.75;;;35.70;51.70;;;;;;6215478;23;20055;-74
2023/07/23 12:01:36;;;;;;;19.20;6.60;;;35.80;51.70;;;;;;6214946;23;20004;-74
2023/07/23 12:04:03;;;;;;;20.58;6.43;;;35.90;51.50;;;;;;6214937;23;20028;-74
2023/07/23 12:06:34;;;;;;;17.40;5.90;;;35.90;51.20;;;;;;6215382;23;20520;-74
2023/07/23 12:09:04;;;;;;;28.50;11.77;;;36.00;50.40;;;;;;6215368;23;20012;-74
2023/07/23 12:11:32;;;;;;;19.95;6.50;;;36.00;51.00;;;;;;6215024;23;20005;-75
2023/07/23 12:14:02;;;;;;;15.25;5.57;;;36.10;51.00;;;;;;6215006;23;20023;-75
2023/07/23 12:16:49;;;;;;;20.08;6.65;;;36.10;51.10;;;;;;6214904;23;20015;-75
2023/07/23 12:19:19;;;;;;;17.10;6.25;;;36.20;51.20;;;;;;6215247;23;20083;-75
2023/07/23 12:21:47;;;;;;;15.43;5.90;;;36.20;51.10;;;;;;6214930;23;20003;-74
2023/07/23 12:24:24;;;;;;;12.77;5.43;;;36.20;51.10;;;;;;6214595;23;20009;-75
2023/07/23 12:26:53;;;;;;;17.50;6.22;;;36.20;51.00;;;;;;6214888;23;20005;-75
2023/07/23 12:29:21;;;;;;;13.55;5.15;;;36.30;51.10;;;;;;6188578;23;20005;-75
2023/07/23 12:31:48;;;;;;;13.05;5.35;;;36.30;50.90;;;;;;6215070;23;20011;-75
2023/07/23 12:34:16;;;;;;;18.92;6.05;;;36.30;50.70;;;;;;6188190;23;20009;-75
2023/07/23 12:36:42;;;;;;;18.73;6.03;;;36.20;50.60;;;;;;6188140;23;20076;-74